ADDS METAR Data INFO
IDs: Format: Raw Decoded Include TAF

Data at: 1713 UTC 23 Oct 2017

KTCL 231653Z AUTO 28012G18KT 250V310 10SM FEW028 OVC037 18/13 A2999 RMK AO2 SLP155 T01780128
KTCL 231610Z 28006KT 10SM SCT022 OVC034 17/13 A2999 RMK AO2 T01720133
KTCL 231553Z 29010KT 10SM BKN020 BKN027 OVC036 17/13 A2999 RMK AO2 SLP154 T01720133
KTCL 231530Z 29005KT 10SM SCT016 BKN030 OVC036 16/14 A2998 RMK AO2 T01610139
KTCL 231453Z 27005KT 10SM SCT017 OVC024 16/14 A2999 RMK AO2 SLP153 T01560139 53011
KTCL 231434Z 28010KT 10SM FEW017 BKN024 OVC030 16/14 A2999 RMK AO2 T01560139
KTCL 231353Z 27007KT 10SM OVC030 16/14 A2997 RMK AO2 SLP147 T01560139
KTCL 231342Z 26007KT 10SM OVC031 16/14 A2997 RMK AO2 T01560139
KTCL 231253Z 29010KT 10SM OVC023 16/14 A2997 RMK AO2 SLP147 T01560144
KTCL 231231Z 28006KT 10SM SCT014 OVC022 16/15 A2996 RMK AO2 T01610150
KTCL 231217Z 27008KT 10SM BKN012 OVC028 16/16 A2996 RMK AO2 T01610156
KTCL 231153Z 28005KT 10SM SCT013 BKN022 OVC028 17/16 A2995 RMK AO2 SLP141 60011 70057 T01670161 10206 20167 53015
KTCL 231053Z AUTO 29006KT 10SM FEW018 OVC023 17/16 A2994 RMK AO2 SLP136 T01670161
KTCL 230953Z AUTO 27004KT 10SM SCT010 OVC016 17/17 A2991 RMK AO2 SLP127 T01720172
KTCL 230853Z AUTO 27003KT 10SM BKN012 BKN017 OVC036 17/17 A2991 RMK AO2 SLP127 60011 T01720172 56006
KTCL 230844Z AUTO 27005KT 10SM BKN016 OVC034 17/17 A2992 RMK AO2 T01720172
KTCL 230807Z AUTO 26005KT 10SM SCT012 OVC030 18/18 A2992 RMK AO2 T01780178
KTCL 230753Z AUTO 27004KT 10SM BKN027 OVC033 18/18 A2992 RMK AO2 RAE32 SLP131 P0000 T01780178
KTCL 230711Z AUTO VRB04KT 9SM -RA SCT008 SCT015 OVC021 18/18 A2993 RMK AO2 P0000 T01830183
KTCL 230653Z AUTO 27011G17KT 7SM -RA OVC008 20/20 A2993 RMK AO2 SLP132 P0011 T02000200
KTCL 230642Z AUTO 25009KT 5SM -RA BR OVC009 21/21 A2993 RMK AO2 CIG 006V011 P0011 T02060206
KTCL 230610Z AUTO 22006G14KT 4SM -RA BR FEW008 BKN014 OVC020 21/21 A2993 RMK AO2 P0010 T02060206
KTCL 230556Z AUTO 22008KT 2SM RA BR FEW006 SCT010 OVC017 21/21 A2993 RMK AO2 P0000 T02060206
KTCL 230553Z AUTO 22007KT 1 1/2SM +RA BR SCT010 OVC017 21/21 A2993 RMK AO2 RAB0459 SLP132 P0036 60045 T02060206 10222 20206 402440183 56006
KTCL 230546Z AUTO 22008KT 1SM +RA BR FEW006 SCT010 OVC015 21/21 A2993 RMK AO2 RAB0459 P0030 T02060206
KTCL 230539Z AUTO 22007KT 2 1/2SM +RA BR FEW006 BKN010 OVC015 21/21 A2993 RMK AO2 RAB0459 P0012 T02110211
KTCL 230453Z AUTO VRB04KT 10SM OVC013 22/21 A2995 RMK AO2 SLP137 T02170211
KTCL 230444Z AUTO 23005KT 10SM OVC013 22/21 A2996 RMK AO2 T02170211
KTCL 230429Z AUTO 21007KT 10SM BKN015 OVC100 22/21 A2995 RMK AO2 T02170211
KTCL 230413Z AUTO 14010KT 10SM SCT015 OVC100 22/21 A2994 RMK AO2 T02170211
KTCL 230404Z AUTO 14007G17KT 110V170 10SM BKN015 OVC100 22/21 A2993 RMK AO2 T02170211
KTCL 230353Z AUTO 14008KT 10SM BKN013 BKN100 22/21 A2993 RMK AO2 RAE20 SLP132 P0000 T02170211
KTCL 230336Z AUTO 13008G14KT 090V160 10SM BKN013 BKN100 22/21 A2992 RMK AO2 RAE20 P0000 T02170211
KTCL 230307Z AUTO 12008G17KT 10SM -RA SCT011 OVC100 22/22 A2994 RMK AO2 P0000 T02170217
KTCL 230253Z AUTO 12007KT 080V150 10SM -RA SCT010 BKN015 OVC100 21/21 A2995 RMK AO2 PRESFR SLP139 P0003 60009 T02110211 58017
KTCL 230246Z AUTO 10008KT 9SM -RA SCT007 BKN014 OVC019 21/21 A2995 RMK AO2 PRESFR P0003 T02110211
KTCL 230209Z AUTO 18006KT 7SM -RA BKN007 BKN012 OVC018 21/21 A2998 RMK AO2 P0001 T02110211
KTCL 230153Z AUTO 16005KT 7SM -RA FEW007 BKN013 OVC032 21/21 A2998 RMK AO2 SLP151 P0005 T02110211
KTCL 230143Z AUTO 17006KT 7SM -RA SCT009 BKN013 OVC029 21/21 A2998 RMK AO2 P0004 T02110211
KTCL 230135Z AUTO 18006KT 6SM -RA BR BKN011 BKN016 OVC037 21/21 A2999 RMK AO2 P0004 T02110211
KTCL 230130Z AUTO 19004KT 5SM RA BR SCT010 BKN016 OVC037 21/21 A2999 RMK AO2 P0004 T02110211
KTCL 230112Z AUTO 18006KT 7SM -RA FEW008 BKN038 OVC045 22/22 A3000 RMK AO2 P0001 T02170217
KTCL 230053Z 17003KT 9SM -RA FEW031 BKN040 OVC055 22/22 A2999 RMK AO2 SLP155 P0001 T02220217
KTCL 222353Z 10003KT 10SM -RA FEW043 BKN050 OVC100 22/22 A3000 RMK AO2 SLP156 P0001 60001 T02220217 10244 20217 58009
KTCL 222253Z 19004KT 9SM -RA OVC065 23/21 A3002 RMK AO2 RAB36 SLP162 P0000 T02280211
KTCL 222153Z 17006KT 10SM FEW046 OVC065 24/21 A3002 RMK AO2 SLP164 T02390206
KTCL 222053Z 12008KT 10SM FEW040 SCT055 24/21 A3003 RMK AO2 RAE40 SLP166 P0000 60000 T02390211 55020
KTCL 221953Z 14008KT 10SM -RA BKN032 BKN050 OVC110 23/21 A3002 RMK AO2 RAB25 PRESFR SLP165 P0000 T02330206
KTCL 221853Z 19008KT 10SM FEW025 SCT035 BKN050 24/21 A3006 RMK AO2 RAB1754E03 SLP178 P0000 T02390206
KTCL 221753Z 14008KT 10SM BKN050 OVC060 23/20 A3008 RMK AO2 SLP185 T02330200 10233 20183 56014
KTCL 221653Z 12007KT 10SM FEW021 BKN047 23/20 A3010 RMK AO2 SLP189 T02330200
KTCL 221605Z 15009KT 10SM SCT018 BKN047 23/20 A3010 RMK AO2 T02280200
KTCL 221553Z 12009G17KT 10SM BKN018 BKN049 23/20 A3010 RMK AO2 SLP191 T02280200
KTCL 221453Z 13011G18KT 10SM OVC015 22/19 A3013 RMK AO2 SLP200 T02170194 56005
KTCL 221431Z 14012G19KT 10SM BKN015 21/19 A3012 RMK AO2 T02060189
KTCL 221353Z 14007G16KT 10SM CLR 21/18 A3013 RMK AO2 SLP200 T02060183
KTCL 221253Z 10007KT 10SM CLR 18/17 A3013 RMK AO2 SLP202 T01830172
KTCL 221153Z 10004KT 10SM CLR 18/17 A3014 RMK AO2 SLP205 T01830167 10206 20183 53012
KTCL 221053Z AUTO VRB04KT 10SM CLR 19/17 A3012 RMK AO2 SLP196 T01890167
KTCL 220953Z AUTO 13004KT 10SM CLR 19/17 A3011 RMK AO2 SLP195 T01890167
KTCL 220853Z AUTO 11006KT 10SM CLR 19/17 A3011 RMK AO2 SLP193 T01940167 56014
KTCL 220753Z AUTO 12007KT 10SM CLR 20/17 A3012 RMK AO2 SLP197 T02000167
KTCL 220653Z AUTO 11008KT 10SM CLR 20/17 A3013 RMK AO2 SLP201 T02000167
KTCL 220553Z AUTO VRB05KT 10SM CLR 21/17 A3015 RMK AO2 SLP206 T02060172 10239 20200 402780111 58007